createdAt,value
2022-08-04T00:00:55.861Z,1011.05
2022-08-04T00:01:55.925Z,1011.05
2022-08-04T00:02:55.831Z,1011.09
2022-08-04T00:03:55.821Z,1011.07
2022-08-04T00:04:55.810Z,1011.08
2022-08-04T00:05:55.799Z,1011.06
2022-08-04T00:06:55.804Z,1011.07
2022-08-04T00:07:55.776Z,1011.09
2022-08-04T00:08:55.852Z,1011.05
2022-08-04T00:09:55.757Z,1011.06
2022-08-04T00:10:55.743Z,1011.06
2022-08-04T00:11:55.736Z,1011.05
2022-08-04T00:12:55.752Z,1011.06
2022-08-04T00:14:03.108Z,1011.05
2022-08-04T00:14:56.697Z,1011.01
2022-08-04T00:15:55.689Z,1011.02
2022-08-04T00:16:55.677Z,1011.01
2022-08-04T00:17:55.665Z,1011.01
2022-08-04T00:18:55.675Z,1010.98
2022-08-04T00:19:55.645Z,1011.00
2022-08-04T00:20:55.632Z,1010.97
2022-08-04T00:21:55.622Z,1010.97
2022-08-04T00:22:55.620Z,1010.98
2022-08-04T00:24:11.789Z,1010.95
2022-08-04T00:24:56.593Z,1010.97
2022-08-04T00:25:55.578Z,1010.96
2022-08-04T00:26:55.567Z,1010.94
2022-08-04T00:27:55.555Z,1010.95
2022-08-04T00:28:55.545Z,1010.96
2022-08-04T00:29:55.534Z,1010.96
2022-08-04T00:30:55.529Z,1011.00
2022-08-04T00:31:57.437Z,1010.99
2022-08-04T00:32:55.501Z,1010.98
2022-08-04T00:33:55.489Z,1011.02
2022-08-04T00:34:55.485Z,1011.00
2022-08-04T00:35:55.468Z,1010.98
2022-08-04T00:36:55.464Z,1010.98
2022-08-04T00:37:55.444Z,1010.99
2022-08-04T00:38:55.495Z,1011.02
2022-08-04T00:39:55.422Z,1010.99
2022-08-04T00:40:55.415Z,1010.98
2022-08-04T00:41:56.703Z,1010.96
2022-08-04T00:42:59.303Z,1010.95
2022-08-04T00:43:55.380Z,1010.96
2022-08-04T00:44:55.368Z,1011.00
2022-08-04T00:46:10.742Z,1011.00
2022-08-04T00:46:56.345Z,1010.99
2022-08-04T00:47:55.335Z,1010.94
2022-08-04T00:48:55.355Z,1010.95
2022-08-04T00:49:55.315Z,1010.96
2022-08-04T00:50:55.323Z,1010.91
2022-08-04T00:52:30.998Z,1010.93
2022-08-04T00:52:56.283Z,1010.91
2022-08-04T00:53:55.268Z,1010.92
2022-08-04T00:54:55.266Z,1010.91
2022-08-04T00:55:55.246Z,1010.92
2022-08-04T00:56:55.235Z,1010.92
2022-08-04T00:57:55.224Z,1010.94
2022-08-04T00:58:55.216Z,1010.93
2022-08-04T00:59:55.204Z,1010.94
2022-08-04T01:00:55.197Z,1010.97
2022-08-04T01:01:55.243Z,1010.96
2022-08-04T01:02:55.169Z,1010.93
2022-08-04T01:03:55.157Z,1010.97
2022-08-04T01:04:55.145Z,1010.99
2022-08-04T01:05:55.135Z,1010.95
2022-08-04T01:06:56.203Z,1010.98
2022-08-04T01:07:55.113Z,1010.98
2022-08-04T01:08:55.102Z,1010.96
2022-08-04T01:09:55.096Z,1010.98
2022-08-04T01:10:55.081Z,1011.00
2022-08-04T01:11:56.176Z,1011.03
2022-08-04T01:12:55.074Z,1011.01
2022-08-04T01:13:55.047Z,1011.01
2022-08-04T01:14:55.035Z,1011.00
2022-08-04T01:16:00.482Z,1011.00
2022-08-04T01:16:56.013Z,1010.95
2022-08-04T01:17:55.002Z,1010.95
2022-08-04T01:18:54.996Z,1010.95
2022-08-04T01:19:54.982Z,1010.98
2022-08-04T01:20:54.972Z,1011.04
2022-08-04T01:21:54.961Z,1011.00
2022-08-04T01:22:54.948Z,1010.97
2022-08-04T01:23:54.942Z,1010.99
2022-08-04T01:24:54.956Z,1010.95
2022-08-04T01:25:56.322Z,1010.98
2022-08-04T01:26:57.915Z,1010.96
2022-08-04T01:27:54.892Z,1010.97
2022-08-04T01:28:54.882Z,1010.96
2022-08-04T01:29:55.673Z,1010.92
2022-08-04T01:30:54.865Z,1010.97
2022-08-04T01:31:54.849Z,1010.94
2022-08-04T01:32:54.838Z,1010.96
2022-08-04T01:34:03.897Z,1010.98
2022-08-04T01:34:55.815Z,1010.96
2022-08-04T01:35:54.948Z,1010.94
2022-08-04T01:36:54.869Z,1010.94
2022-08-04T01:37:54.782Z,1010.97
2022-08-04T01:38:54.822Z,1010.97
2022-08-04T01:39:54.762Z,1011.00
2022-08-04T01:40:54.749Z,1010.98
2022-08-04T01:41:58.523Z,1011.03
2022-08-04T01:42:54.733Z,1011.01
2022-08-04T01:43:54.716Z,1011.00
2022-08-04T01:44:54.709Z,1011.05
2022-08-04T01:45:54.695Z,1011.00
2022-08-04T01:46:54.684Z,1011.03
2022-08-04T01:47:54.673Z,1011.03
2022-08-04T01:48:54.693Z,1010.99
2022-08-04T01:49:54.652Z,1010.99
2022-08-04T01:50:54.639Z,1010.99
2022-08-04T01:51:54.633Z,1010.98
2022-08-04T01:52:54.622Z,1010.98
2022-08-04T01:53:54.606Z,1011.02
2022-08-04T01:54:54.615Z,1010.98
2022-08-04T01:55:55.765Z,1011.02
2022-08-04T01:56:54.573Z,1010.97
2022-08-04T01:57:54.573Z,1010.97
2022-08-04T01:58:54.550Z,1010.98
2022-08-04T01:59:56.265Z,1010.99
2022-08-04T02:00:56.457Z,1011.01
2022-08-04T02:01:54.784Z,1011.03
2022-08-04T02:02:54.568Z,1011.02
2022-08-04T02:04:21.080Z,1011.01
2022-08-04T02:04:55.485Z,1011.00
2022-08-04T02:06:02.556Z,1010.99
2022-08-04T02:06:55.469Z,1010.94
2022-08-04T02:07:54.455Z,1011.00
2022-08-04T02:08:54.441Z,1011.00
2022-08-04T02:09:55.293Z,1010.98
2022-08-04T02:10:54.418Z,1010.95
2022-08-04T02:11:54.407Z,1010.99
2022-08-04T02:12:54.403Z,1010.94
2022-08-04T02:13:54.384Z,1010.94
2022-08-04T02:14:54.376Z,1010.93
2022-08-04T02:15:54.365Z,1010.93
2022-08-04T02:16:54.352Z,1010.89
2022-08-04T02:17:54.342Z,1010.91
2022-08-04T02:18:54.336Z,1010.88
2022-08-04T02:19:54.328Z,1010.85
2022-08-04T02:20:54.307Z,1010.83
2022-08-04T02:21:54.297Z,1010.89
2022-08-04T02:22:54.286Z,1010.88
2022-08-04T02:23:54.273Z,1010.91
2022-08-04T02:24:54.284Z,1010.93
2022-08-04T02:25:54.253Z,1010.81
2022-08-04T02:26:54.242Z,1010.86
2022-08-04T02:28:00.350Z,1010.85
2022-08-04T02:28:55.219Z,1010.83
2022-08-04T02:29:54.208Z,1010.85
2022-08-04T02:30:54.207Z,1010.86
2022-08-04T02:31:54.185Z,1010.82
2022-08-04T02:32:54.175Z,1010.81
2022-08-04T02:33:54.165Z,1010.82
2022-08-04T02:34:54.152Z,1010.82
2022-08-04T02:35:54.142Z,1010.81
2022-08-04T02:36:54.137Z,1010.81
2022-08-04T02:37:54.119Z,1010.84
2022-08-04T02:38:54.161Z,1010.80
2022-08-04T02:39:54.256Z,1010.80
2022-08-04T02:40:54.086Z,1010.76
2022-08-04T02:41:54.078Z,1010.74
2022-08-04T02:42:54.070Z,1010.76
2022-08-04T02:43:54.054Z,1010.74
2022-08-04T02:44:54.042Z,1010.72
2022-08-04T02:45:54.031Z,1010.70
2022-08-04T02:46:54.021Z,1010.70
2022-08-04T02:48:28.768Z,1010.71
2022-08-04T02:48:55.026Z,1010.73
2022-08-04T02:49:53.985Z,1010.70
2022-08-04T02:50:53.978Z,1010.67
2022-08-04T02:51:53.969Z,1010.71
2022-08-04T02:52:53.953Z,1010.74
2022-08-04T02:53:53.943Z,1010.73
2022-08-04T02:54:53.952Z,1010.75
2022-08-04T02:55:56.429Z,1010.72
2022-08-04T02:56:53.910Z,1010.76
2022-08-04T02:57:53.898Z,1010.76
2022-08-04T02:58:53.886Z,1010.76
2022-08-04T02:59:53.875Z,1010.78
2022-08-04T03:00:53.931Z,1010.75
2022-08-04T03:01:57.711Z,1010.78
2022-08-04T03:02:53.843Z,1010.74
2022-08-04T03:03:53.832Z,1010.74
2022-08-04T03:04:53.820Z,1010.74
2022-08-04T03:06:01.437Z,1010.75
2022-08-04T03:06:54.884Z,1010.70
2022-08-04T03:07:53.788Z,1010.69
2022-08-04T03:08:53.776Z,1010.74
2022-08-04T03:09:53.765Z,1010.72
2022-08-04T03:10:53.756Z,1010.74
2022-08-04T03:11:53.743Z,1010.71
2022-08-04T03:12:53.739Z,1010.73
2022-08-04T03:13:54.720Z,1010.69
2022-08-04T03:14:53.710Z,1010.76
2022-08-04T03:15:53.699Z,1010.73
2022-08-04T03:16:53.690Z,1010.78
2022-08-04T03:17:53.702Z,1010.77
2022-08-04T03:18:53.673Z,1010.74
2022-08-04T03:19:53.657Z,1010.70
2022-08-04T03:20:53.645Z,1010.74
2022-08-04T03:21:53.637Z,1010.73
2022-08-04T03:23:12.094Z,1010.74
2022-08-04T03:23:54.621Z,1010.73
2022-08-04T03:24:53.600Z,1010.73
2022-08-04T03:25:54.587Z,1010.77
2022-08-04T03:26:53.581Z,1010.76
2022-08-04T03:27:53.567Z,1010.74
2022-08-04T03:28:53.556Z,1010.74
2022-08-04T03:29:53.559Z,1010.77
2022-08-04T03:30:53.534Z,1010.72
2022-08-04T03:31:53.524Z,1010.76
2022-08-04T03:32:53.511Z,1010.75
2022-08-04T03:33:53.501Z,1010.73
2022-08-04T03:34:53.493Z,1010.76
2022-08-04T03:35:53.499Z,1010.77
2022-08-04T03:36:53.467Z,1010.72
2022-08-04T03:37:53.456Z,1010.76
2022-08-04T03:38:57.210Z,1010.76
2022-08-04T03:39:53.433Z,1010.77
2022-08-04T03:40:53.424Z,1010.81
2022-08-04T03:42:04.266Z,1010.80
2022-08-04T03:42:54.400Z,1010.80
2022-08-04T03:43:59.410Z,1010.82
2022-08-04T03:44:54.380Z,1010.87
2022-08-04T03:45:53.367Z,1010.83
2022-08-04T03:46:53.359Z,1010.82
2022-08-04T03:47:53.352Z,1010.87
2022-08-04T03:48:53.335Z,1010.85
2022-08-04T03:49:53.324Z,1010.83
2022-08-04T03:50:53.313Z,1010.82
2022-08-04T03:51:53.302Z,1010.83
2022-08-04T03:52:53.291Z,1010.79
2022-08-04T03:53:53.302Z,1010.79
2022-08-04T03:54:53.269Z,1010.81
2022-08-04T03:55:53.258Z,1010.80
2022-08-04T03:56:53.247Z,1010.80
2022-08-04T03:57:53.236Z,1010.83
2022-08-04T03:58:53.225Z,1010.83
2022-08-04T03:59:53.234Z,1010.84
2022-08-04T04:00:53.203Z,1010.81
2022-08-04T04:02:02.524Z,1010.81
2022-08-04T04:02:54.256Z,1010.83
2022-08-04T04:03:53.171Z,1010.84
2022-08-04T04:04:53.159Z,1010.86
2022-08-04T04:06:00.114Z,1010.84
2022-08-04T04:06:54.378Z,1010.84
2022-08-04T04:07:58.284Z,1010.86
2022-08-04T04:08:54.115Z,1010.85
2022-08-04T04:09:58.012Z,1010.87
2022-08-04T04:10:54.098Z,1010.83
2022-08-04T04:11:57.493Z,1010.85
2022-08-04T04:12:54.071Z,1010.84
2022-08-04T04:13:53.060Z,1010.82
2022-08-04T04:14:53.051Z,1010.84
2022-08-04T04:15:53.037Z,1010.90
2022-08-04T04:16:53.056Z,1010.89
2022-08-04T04:17:53.015Z,1010.88
2022-08-04T04:18:53.004Z,1010.88
2022-08-04T04:19:58.362Z,1010.87
2022-08-04T04:20:53.980Z,1010.85
2022-08-04T04:21:52.970Z,1010.87
2022-08-04T04:22:52.967Z,1010.86
2022-08-04T04:23:52.947Z,1010.85
2022-08-04T04:24:52.937Z,1010.85
2022-08-04T04:25:52.926Z,1010.91
2022-08-04T04:26:52.916Z,1010.86
2022-08-04T04:27:52.908Z,1010.88
2022-08-04T04:28:52.899Z,1010.91
2022-08-04T04:29:52.882Z,1010.89
2022-08-04T04:32:07.702Z,1010.86
2022-08-04T04:33:07.690Z,1010.86
2022-08-04T04:34:07.702Z,1010.88
2022-08-04T04:35:07.668Z,1010.91
2022-08-04T04:36:07.663Z,1010.86
2022-08-04T04:37:07.650Z,1010.87
2022-08-04T04:38:07.636Z,1010.89
2022-08-04T04:39:07.674Z,1010.90
2022-08-04T04:40:07.629Z,1010.88
2022-08-04T04:41:07.603Z,1010.88
2022-08-04T04:42:07.592Z,1010.88
2022-08-04T04:43:07.581Z,1010.88
2022-08-04T04:44:07.571Z,1010.87
2022-08-04T04:45:07.560Z,1010.94
2022-08-04T04:46:07.554Z,1010.93
2022-08-04T04:47:07.539Z,1010.97
2022-08-04T04:48:10.674Z,1010.95
2022-08-04T04:49:07.517Z,1010.92
2022-08-04T04:50:07.506Z,1010.94
2022-08-04T04:51:07.495Z,1010.94
2022-08-04T04:52:07.513Z,1010.93
2022-08-04T04:53:07.472Z,1010.92
2022-08-04T04:54:07.462Z,1010.91
2022-08-04T04:55:07.454Z,1010.90
2022-08-04T04:56:07.478Z,1010.93
2022-08-04T04:57:07.431Z,1010.87
2022-08-04T04:58:07.438Z,1010.92
2022-08-04T04:59:07.408Z,1010.92
2022-08-04T05:00:07.397Z,1010.89
2022-08-04T05:01:07.386Z,1010.91
2022-08-04T05:02:07.379Z,1010.92
2022-08-04T05:03:09.384Z,1010.88
2022-08-04T05:04:07.358Z,1010.90
2022-08-04T05:05:07.344Z,1010.93
2022-08-04T05:06:07.333Z,1010.89
2022-08-04T05:07:07.321Z,1010.91
2022-08-04T05:08:42.969Z,1010.92
2022-08-04T05:09:08.324Z,1010.89
2022-08-04T05:10:07.293Z,1010.92
2022-08-04T05:11:07.295Z,1010.90
2022-08-04T05:13:05.031Z,1010.92
2022-08-04T05:14:36.355Z,1010.90
2022-08-04T05:14:38.768Z,1010.89
2022-08-04T05:15:08.253Z,1010.91
2022-08-04T05:16:07.224Z,1010.93
2022-08-04T05:17:07.215Z,1010.92
2022-08-04T05:18:07.204Z,1010.93
2022-08-04T05:19:07.191Z,1010.91
2022-08-04T05:20:07.181Z,1010.94
2022-08-04T05:21:07.238Z,1010.93
2022-08-04T05:22:11.222Z,1010.94
2022-08-04T05:23:08.147Z,1010.91
2022-08-04T05:24:07.139Z,1010.95
2022-08-04T05:25:07.134Z,1010.96
2022-08-04T05:26:07.130Z,1010.95
2022-08-04T05:27:07.135Z,1010.95
2022-08-04T05:28:07.093Z,1010.93
2022-08-04T05:29:07.086Z,1010.94
2022-08-04T05:30:07.073Z,1010.95
2022-08-04T05:31:07.197Z,1010.94
2022-08-04T05:32:07.050Z,1010.92
2022-08-04T05:33:07.048Z,1010.96
2022-08-04T05:34:07.030Z,1010.91
2022-08-04T05:35:07.018Z,1010.93
2022-08-04T05:36:20.333Z,1010.91
2022-08-04T05:37:07.996Z,1010.91
2022-08-04T05:38:06.988Z,1010.91
2022-08-04T05:39:07.081Z,1010.97
2022-08-04T05:40:06.962Z,1010.95
2022-08-04T05:41:06.954Z,1010.90
2022-08-04T05:42:07.390Z,1010.92
2022-08-04T05:43:06.932Z,1010.96
2022-08-04T05:44:06.920Z,1010.93
2022-08-04T05:45:06.927Z,1010.91
2022-08-04T05:46:06.998Z,1010.94
2022-08-04T05:47:06.887Z,1010.92
2022-08-04T05:48:06.876Z,1010.97
2022-08-04T05:49:06.866Z,1010.91
2022-08-04T05:50:06.856Z,1010.95
2022-08-04T05:51:06.867Z,1010.93
2022-08-04T05:52:06.834Z,1010.95
2022-08-04T05:53:06.823Z,1010.92
2022-08-04T05:54:06.814Z,1010.99
2022-08-04T05:55:06.800Z,1010.98
2022-08-04T05:56:06.791Z,1010.97
2022-08-04T05:57:06.798Z,1010.96
2022-08-04T05:58:06.768Z,1010.99
2022-08-04T05:59:06.759Z,1011.00
2022-08-04T06:00:19.860Z,1011.03
2022-08-04T06:01:07.734Z,1010.98
2022-08-04T06:02:06.808Z,1010.98
2022-08-04T06:03:06.738Z,1010.96
2022-08-04T06:04:09.582Z,1010.94
2022-08-04T06:05:06.692Z,1010.92
2022-08-04T06:06:06.682Z,1010.98
2022-08-04T06:07:06.671Z,1010.89
2022-08-04T06:08:13.695Z,1010.93
2022-08-04T06:09:07.654Z,1010.95
2022-08-04T06:10:06.638Z,1010.93
2022-08-04T06:11:06.627Z,1010.90
2022-08-04T06:12:06.618Z,1010.92
2022-08-04T06:13:06.609Z,1011.00
2022-08-04T06:14:06.598Z,1010.97
2022-08-04T06:15:06.590Z,1010.91
2022-08-04T06:16:06.581Z,1010.92
2022-08-04T06:18:34.077Z,1010.93
2022-08-04T06:19:56.528Z,1010.97
2022-08-04T06:19:59.485Z,1010.93
2022-08-04T06:20:19.756Z,1010.96
2022-08-04T06:21:15.957Z,1010.95
2022-08-04T06:22:07.507Z,1011.01
2022-08-04T06:23:06.497Z,1010.99
2022-08-04T06:24:06.486Z,1011.02
2022-08-04T06:25:06.476Z,1011.02
2022-08-04T06:26:06.471Z,1010.97
2022-08-04T06:27:06.454Z,1011.00
2022-08-04T06:28:06.444Z,1011.05
2022-08-04T06:29:06.433Z,1010.99
2022-08-04T06:30:06.422Z,1010.98
2022-08-04T06:32:28.280Z,1011.02
2022-08-04T06:32:31.027Z,1011.03
2022-08-04T06:33:07.388Z,1011.03
2022-08-04T06:34:06.378Z,1011.03
2022-08-04T06:35:06.368Z,1011.02
2022-08-04T06:36:06.363Z,1011.00
2022-08-04T06:37:06.349Z,1010.97
2022-08-04T06:38:06.340Z,1011.02
2022-08-04T06:39:06.390Z,1010.99
2022-08-04T06:40:30.939Z,1011.01
2022-08-04T06:41:07.301Z,1010.97
2022-08-04T06:42:22.383Z,1010.96
2022-08-04T06:43:07.298Z,1010.96
2022-08-04T06:44:06.269Z,1010.97
2022-08-04T06:45:06.261Z,1010.96
2022-08-04T06:46:06.249Z,1010.92
2022-08-04T06:47:06.238Z,1010.95
2022-08-04T06:48:06.227Z,1010.93
2022-08-04T06:49:06.223Z,1010.93
2022-08-04T06:51:26.687Z,1010.89
2022-08-04T06:51:27.926Z,1010.94
2022-08-04T06:52:07.182Z,1010.92
2022-08-04T06:53:06.195Z,1010.90
2022-08-04T06:54:06.162Z,1010.92
2022-08-04T06:55:06.157Z,1010.92
2022-08-04T06:56:06.140Z,1010.95
2022-08-04T06:57:06.129Z,1010.92
2022-08-04T06:58:06.119Z,1010.92
2022-08-04T06:59:06.111Z,1010.94
2022-08-04T07:00:06.095Z,1010.89
2022-08-04T07:01:06.092Z,1010.85
2022-08-04T07:02:06.112Z,1010.88
2022-08-04T07:03:06.064Z,1010.88
2022-08-04T07:04:06.054Z,1010.93
2022-08-04T07:05:07.858Z,1010.90
2022-08-04T07:06:09.211Z,1010.93
2022-08-04T07:07:07.040Z,1010.90
2022-08-04T07:08:06.012Z,1010.93
2022-08-04T07:09:05.999Z,1010.93
2022-08-04T07:10:05.988Z,1010.90
2022-08-04T07:11:05.979Z,1010.95
2022-08-04T07:12:05.965Z,1010.89
2022-08-04T07:13:05.975Z,1010.87
2022-08-04T07:14:05.947Z,1010.90
2022-08-04T07:15:05.935Z,1010.89
2022-08-04T07:16:05.924Z,1010.87
2022-08-04T07:17:05.913Z,1010.92
2022-08-04T07:18:05.903Z,1010.87
2022-08-04T07:19:09.993Z,1010.89
2022-08-04T07:20:05.879Z,1010.84
2022-08-04T07:21:05.870Z,1010.88
2022-08-04T07:22:17.848Z,1010.87
2022-08-04T07:23:06.913Z,1010.88
2022-08-04T07:24:05.835Z,1010.84
2022-08-04T07:25:09.901Z,1010.88
2022-08-04T07:26:11.586Z,1010.84
2022-08-04T07:27:06.803Z,1010.78
2022-08-04T07:28:05.793Z,1010.83
2022-08-04T07:29:05.784Z,1010.80
2022-08-04T07:30:05.770Z,1010.81
2022-08-04T07:31:05.768Z,1010.84
2022-08-04T07:32:05.752Z,1010.86
2022-08-04T07:33:05.739Z,1010.79
2022-08-04T07:34:11.474Z,1010.82
2022-08-04T07:35:06.717Z,1010.79
2022-08-04T07:36:10.583Z,1010.77
2022-08-04T07:37:06.724Z,1010.75
2022-08-04T07:38:05.685Z,1010.77
2022-08-04T07:39:05.729Z,1010.79
2022-08-04T07:40:05.743Z,1010.76
2022-08-04T07:41:35.276Z,1010.79
2022-08-04T07:42:06.640Z,1010.80
2022-08-04T07:43:05.637Z,1010.78
2022-08-04T07:44:05.621Z,1010.74
2022-08-04T07:45:05.609Z,1010.80
2022-08-04T07:46:06.602Z,1010.78
2022-08-04T07:47:05.595Z,1010.80
2022-08-04T07:48:06.096Z,1010.78
2022-08-04T07:49:05.605Z,1010.79
2022-08-04T07:50:05.556Z,1010.78
2022-08-04T07:51:06.561Z,1010.78
2022-08-04T07:52:05.533Z,1010.79
2022-08-04T07:53:53.099Z,1010.76
2022-08-04T07:54:06.518Z,1010.78
2022-08-04T07:55:05.503Z,1010.79
2022-08-04T07:56:05.489Z,1010.79
2022-08-04T07:57:05.480Z,1010.82
2022-08-04T07:58:05.468Z,1010.79
2022-08-04T07:59:05.457Z,1010.80
2022-08-04T08:00:05.462Z,1010.78
2022-08-04T08:01:05.440Z,1010.83
2022-08-04T08:02:05.425Z,1010.80
2022-08-04T08:03:05.453Z,1010.82
2022-08-04T08:04:05.404Z,1010.78
2022-08-04T08:05:05.392Z,1010.78
2022-08-04T08:06:17.631Z,1010.79
2022-08-04T08:07:06.371Z,1010.73
2022-08-04T08:08:05.360Z,1010.73
2022-08-04T08:09:13.192Z,1010.71
2022-08-04T08:10:06.337Z,1010.69
2022-08-04T08:11:05.328Z,1010.70
2022-08-04T08:12:36.225Z,1010.69
2022-08-04T08:13:06.305Z,1010.72
2022-08-04T08:14:05.295Z,1010.69
2022-08-04T08:15:05.286Z,1010.70
2022-08-04T08:16:05.275Z,1010.70
2022-08-04T08:17:05.266Z,1010.72
2022-08-04T08:18:05.272Z,1010.69
2022-08-04T08:19:05.240Z,1010.72
2022-08-04T08:20:05.230Z,1010.66
2022-08-04T08:21:05.219Z,1010.65
2022-08-04T08:22:05.210Z,1010.67
2022-08-04T08:23:05.245Z,1010.68
2022-08-04T08:24:08.565Z,1010.69
2022-08-04T08:25:06.176Z,1010.64
2022-08-04T08:26:05.166Z,1010.65
2022-08-04T08:27:05.159Z,1010.66
2022-08-04T08:28:05.160Z,1010.65
2022-08-04T08:29:05.133Z,1010.65
2022-08-04T08:30:05.127Z,1010.63
2022-08-04T08:31:07.198Z,1010.63
2022-08-04T08:32:08.503Z,1010.59
2022-08-04T08:33:05.924Z,1010.59
2022-08-04T08:34:05.078Z,1010.57
2022-08-04T08:35:05.071Z,1010.58
2022-08-04T08:36:05.068Z,1010.56
2022-08-04T08:37:05.048Z,1010.53
2022-08-04T08:38:05.035Z,1010.54
2022-08-04T08:39:05.074Z,1010.56
2022-08-04T08:40:05.013Z,1010.58
2022-08-04T08:41:05.004Z,1010.54
2022-08-04T08:42:05.022Z,1010.54
2022-08-04T08:44:06.394Z,1010.51
2022-08-04T08:44:07.709Z,1010.52
2022-08-04T08:45:04.960Z,1010.53
2022-08-04T08:46:04.947Z,1010.53
2022-08-04T08:47:04.938Z,1010.52
2022-08-04T08:48:06.998Z,1010.53
2022-08-04T08:49:04.921Z,1010.52
2022-08-04T08:50:05.073Z,1010.56
2022-08-04T08:51:04.894Z,1010.53
2022-08-04T08:52:04.884Z,1010.51
2022-08-04T08:53:04.872Z,1010.52
2022-08-04T08:54:04.868Z,1010.53
2022-08-04T08:55:04.858Z,1010.48
2022-08-04T08:56:04.840Z,1010.49
2022-08-04T08:57:04.832Z,1010.52
2022-08-04T08:58:04.818Z,1010.52
2022-08-04T08:59:04.807Z,1010.52
2022-08-04T09:00:05.802Z,1010.51
2022-08-04T09:01:04.837Z,1010.51
2022-08-04T09:02:04.774Z,1010.50
2022-08-04T09:03:05.467Z,1010.53
2022-08-04T09:04:04.752Z,1010.50
2022-08-04T09:05:04.742Z,1010.48
2022-08-04T09:06:04.736Z,1010.51
2022-08-04T09:07:04.728Z,1010.48
2022-08-04T09:08:04.709Z,1010.51
2022-08-04T09:09:04.700Z,1010.49
2022-08-04T09:10:04.689Z,1010.48
2022-08-04T09:11:04.679Z,1010.48
2022-08-04T09:12:04.673Z,1010.48
2022-08-04T09:13:04.657Z,1010.51
2022-08-04T09:14:04.645Z,1010.50
2022-08-04T09:15:04.637Z,1010.48
2022-08-04T09:16:04.622Z,1010.47
2022-08-04T09:17:04.611Z,1010.48
2022-08-04T09:18:04.623Z,1010.44
2022-08-04T09:19:04.591Z,1010.47
2022-08-04T09:20:04.580Z,1010.52
2022-08-04T09:21:04.568Z,1010.50
2022-08-04T09:22:05.901Z,1010.49
2022-08-04T09:23:04.548Z,1010.47
2022-08-04T09:24:04.542Z,1010.50
2022-08-04T09:25:05.525Z,1010.45
2022-08-04T09:26:04.515Z,1010.44
2022-08-04T09:27:04.508Z,1010.45
2022-08-04T09:28:09.654Z,1010.48
2022-08-04T09:29:05.489Z,1010.49
2022-08-04T09:30:04.471Z,1010.43
2022-08-04T09:31:04.460Z,1010.43
2022-08-04T09:32:07.465Z,1010.42
2022-08-04T09:33:04.441Z,1010.43
2022-08-04T09:34:04.429Z,1010.45
2022-08-04T09:35:09.548Z,1010.46
2022-08-04T09:36:05.408Z,1010.43
2022-08-04T09:37:04.397Z,1010.40
2022-08-04T09:38:04.386Z,1010.36
2022-08-04T09:39:04.447Z,1010.37
2022-08-04T09:40:04.368Z,1010.40
2022-08-04T09:41:04.694Z,1010.37
2022-08-04T09:42:05.567Z,1010.39
2022-08-04T09:43:04.330Z,1010.37
2022-08-04T09:44:50.179Z,1010.36
2022-08-04T09:45:06.499Z,1010.37
2022-08-04T09:46:04.298Z,1010.37
2022-08-04T09:47:04.318Z,1010.33
2022-08-04T09:48:04.277Z,1010.40
2022-08-04T09:49:04.265Z,1010.38
2022-08-04T09:50:04.261Z,1010.35
2022-08-04T09:51:04.247Z,1010.39
2022-08-04T09:52:04.238Z,1010.38
2022-08-04T09:53:04.229Z,1010.36
2022-08-04T09:54:04.211Z,1010.35
2022-08-04T09:55:04.202Z,1010.38
2022-08-04T09:56:04.191Z,1010.38
2022-08-04T09:57:04.183Z,1010.28
2022-08-04T09:58:04.170Z,1010.33
2022-08-04T09:59:04.164Z,1010.32
2022-08-04T10:00:04.170Z,1010.33
2022-08-04T10:01:04.137Z,1010.29
2022-08-04T10:02:04.132Z,1010.27
2022-08-04T10:03:04.139Z,1010.25
2022-08-04T10:04:04.110Z,1010.26
2022-08-04T10:05:04.121Z,1010.19
2022-08-04T10:06:04.084Z,1010.24
2022-08-04T10:07:04.098Z,1010.24
2022-08-04T10:08:16.576Z,1010.21
2022-08-04T10:09:05.051Z,1010.23
2022-08-04T10:10:04.041Z,1010.20
2022-08-04T10:11:04.034Z,1010.11
2022-08-04T10:12:04.018Z,1010.13
2022-08-04T10:13:04.009Z,1010.16
2022-08-04T10:14:03.997Z,1010.12
2022-08-04T10:15:03.986Z,1010.09
2022-08-04T10:16:03.976Z,1010.07
2022-08-04T10:17:03.969Z,1010.12
2022-08-04T10:18:03.954Z,1010.13
2022-08-04T10:19:08.250Z,1010.09
2022-08-04T10:20:03.934Z,1010.06
2022-08-04T10:21:10.308Z,1010.07
2022-08-04T10:22:28.959Z,1010.06
2022-08-04T10:23:11.425Z,1010.04
2022-08-04T10:24:04.888Z,1010.06
2022-08-04T10:25:03.877Z,1010.02
2022-08-04T10:26:07.667Z,1009.96
2022-08-04T10:27:03.857Z,1009.99
2022-08-04T10:28:03.860Z,1009.98
2022-08-04T10:29:03.836Z,1009.93
2022-08-04T10:30:03.824Z,1009.96
2022-08-04T10:31:03.813Z,1009.94
2022-08-04T10:32:03.803Z,1009.94
2022-08-04T10:33:03.790Z,1009.86
2022-08-04T10:34:03.787Z,1009.94
2022-08-04T10:35:03.771Z,1009.97
2022-08-04T10:36:03.760Z,1009.99
2022-08-04T10:37:03.747Z,1009.94
2022-08-04T10:38:03.743Z,1009.91
2022-08-04T10:39:03.786Z,1009.93
2022-08-04T10:40:03.840Z,1009.90
2022-08-04T10:41:03.714Z,1009.88
2022-08-04T10:42:03.695Z,1009.81
2022-08-04T10:43:03.683Z,1009.84
2022-08-04T10:44:03.675Z,1009.83
2022-08-04T10:45:03.665Z,1009.87
2022-08-04T10:46:03.655Z,1009.87
2022-08-04T10:47:03.640Z,1009.81
2022-08-04T10:48:03.628Z,1009.80
2022-08-04T10:49:03.619Z,1009.82
2022-08-04T10:50:03.620Z,1009.81
2022-08-04T10:51:03.601Z,1009.79
2022-08-04T10:52:03.613Z,1009.81
2022-08-04T10:53:03.576Z,1009.81
2022-08-04T10:54:03.569Z,1009.78
2022-08-04T10:55:03.552Z,1009.75
2022-08-04T10:56:07.019Z,1009.73
2022-08-04T10:57:04.538Z,1009.73
2022-08-04T10:58:03.521Z,1009.76
2022-08-04T10:59:03.511Z,1009.79
2022-08-04T11:00:04.168Z,1009.77
2022-08-04T11:01:03.498Z,1009.74
2022-08-04T11:02:03.920Z,1009.75
2022-08-04T11:03:03.566Z,1009.71
2022-08-04T11:04:03.458Z,1009.73
2022-08-04T11:05:03.446Z,1009.67
2022-08-04T11:06:03.434Z,1009.67
2022-08-04T11:07:03.426Z,1009.70
2022-08-04T11:08:04.798Z,1009.74
2022-08-04T11:09:03.410Z,1009.76
2022-08-04T11:10:03.390Z,1009.73
2022-08-04T11:11:03.381Z,1009.66
2022-08-04T11:12:03.370Z,1009.67
2022-08-04T11:13:03.359Z,1009.67
2022-08-04T11:14:03.348Z,1009.63
2022-08-04T11:15:03.343Z,1009.60
2022-08-04T11:16:03.327Z,1009.60
2022-08-04T11:17:03.315Z,1009.58
2022-08-04T11:18:03.305Z,1009.56
2022-08-04T11:19:03.294Z,1009.58
2022-08-04T11:20:33.117Z,1009.55
2022-08-04T11:21:04.292Z,1009.59
2022-08-04T11:22:03.266Z,1009.58
2022-08-04T11:23:03.253Z,1009.59
2022-08-04T11:24:03.240Z,1009.55
2022-08-04T11:25:03.231Z,1009.54
2022-08-04T11:26:03.221Z,1009.53
2022-08-04T11:27:03.242Z,1009.49
2022-08-04T11:28:03.199Z,1009.53
2022-08-04T11:29:04.433Z,1009.54
2022-08-04T11:30:03.177Z,1009.46
2022-08-04T11:31:03.169Z,1009.51
2022-08-04T11:32:03.176Z,1009.53
2022-08-04T11:33:03.162Z,1009.55
2022-08-04T11:34:03.137Z,1009.51
2022-08-04T11:35:03.124Z,1009.54
2022-08-04T11:36:03.113Z,1009.53
2022-08-04T11:37:03.103Z,1009.53
2022-08-04T11:38:03.095Z,1009.49
2022-08-04T11:39:03.153Z,1009.46
2022-08-04T11:40:03.074Z,1009.51
2022-08-04T11:41:03.378Z,1009.53
2022-08-04T11:42:03.053Z,1009.50
2022-08-04T11:43:03.042Z,1009.48
2022-08-04T11:44:07.884Z,1009.50
2022-08-04T11:45:04.024Z,1009.53
2022-08-04T11:46:03.007Z,1009.59
2022-08-04T11:47:03.008Z,1009.52
2022-08-04T11:48:02.986Z,1009.53
2022-08-04T11:49:02.982Z,1009.55
2022-08-04T11:50:02.967Z,1009.57
2022-08-04T11:51:02.975Z,1009.57
2022-08-04T11:52:02.943Z,1009.57
2022-08-04T11:53:02.933Z,1009.48
2022-08-04T11:54:02.922Z,1009.50
2022-08-04T11:55:02.913Z,1009.49
2022-08-04T11:56:09.726Z,1009.47
2022-08-04T11:57:03.896Z,1009.47
2022-08-04T11:58:02.881Z,1009.48
2022-08-04T11:59:02.872Z,1009.45
2022-08-04T12:00:07.670Z,1009.49
2022-08-04T12:01:03.847Z,1009.49
2022-08-04T12:02:02.890Z,1009.49
2022-08-04T12:03:02.835Z,1009.49
2022-08-04T12:04:04.141Z,1009.42
2022-08-04T12:05:02.806Z,1009.51
2022-08-04T12:06:02.797Z,1009.49
2022-08-04T12:07:29.594Z,1009.49